sensor_id;sensor_type;location;lat;lon;timestamp;pressure;altitude;pressure_sealevel;temperature;humidity
64739;BME280;51175;51.186;0.276;2023-03-22T00:00:07;100200.38;;;15.26;67.22
64739;BME280;51175;51.186;0.276;2023-03-22T00:00:42;100201.16;;;15.26;67.23
64739;BME280;51175;51.186;0.276;2023-03-22T00:01:20;100197.72;;;15.26;67.44
64739;BME280;51175;51.186;0.276;2023-03-22T00:01:51;100195.03;;;15.26;67.22
64739;BME280;51175;51.186;0.276;2023-03-22T00:02:23;100196.94;;;15.25;67.27
64739;BME280;51175;51.186;0.276;2023-03-22T00:02:55;100191.91;;;15.24;67.16
64739;BME280;51175;51.186;0.276;2023-03-22T00:03:25;100199.91;;;15.24;67.46
64739;BME280;51175;51.186;0.276;2023-03-22T00:03:56;100191.63;;;15.25;67.22
64739;BME280;51175;51.186;0.276;2023-03-22T00:04:27;100188.47;;;15.23;67.22
64739;BME280;51175;51.186;0.276;2023-03-22T00:04:57;100196.94;;;15.25;67.29
64739;BME280;51175;51.186;0.276;2023-03-22T00:05:28;100191.91;;;15.24;67.20
64739;BME280;51175;51.186;0.276;2023-03-22T00:05:59;100181.28;;;15.24;67.54
64739;BME280;51175;51.186;0.276;2023-03-22T00:06:30;100175.97;;;15.24;67.30
64739;BME280;51175;51.186;0.276;2023-03-22T00:07:00;100183.13;;;15.23;67.58
64739;BME280;51175;51.186;0.276;2023-03-22T00:07:30;100180.47;;;15.23;67.20
64739;BME280;51175;51.186;0.276;2023-03-22T00:08:01;100179.69;;;15.23;67.51
64739;BME280;51175;51.186;0.276;2023-03-22T00:08:34;100182.34;;;15.23;67.28
64739;BME280;51175;51.186;0.276;2023-03-22T00:09:05;100176.25;;;15.22;67.31
64739;BME280;51175;51.186;0.276;2023-03-22T00:09:35;100182.34;;;15.23;67.26
64739;BME280;51175;51.186;0.276;2023-03-22T00:10:06;100175.47;;;15.22;67.49
64739;BME280;51175;51.186;0.276;2023-03-22T00:10:37;100178.91;;;15.22;67.47
64739;BME280;51175;51.186;0.276;2023-03-22T00:11:08;100176.25;;;15.22;67.52
64739;BME280;51175;51.186;0.276;2023-03-22T00:11:40;100178.91;;;15.22;67.29
64739;BME280;51175;51.186;0.276;2023-03-22T00:12:10;100171.69;;;15.23;67.57
64739;BME280;51175;51.186;0.276;2023-03-22T00:12:40;100189.56;;;15.22;67.52
64739;BME280;51175;51.186;0.276;2023-03-22T00:13:11;100185.00;;;15.23;67.23
64739;BME280;51175;51.186;0.276;2023-03-22T00:13:42;100184.25;;;15.22;67.31
64739;BME280;51175;51.186;0.276;2023-03-22T00:14:13;100187.66;;;15.23;67.28
64739;BME280;51175;51.186;0.276;2023-03-22T00:14:43;100182.34;;;15.23;67.50
64739;BME280;51175;51.186;0.276;2023-03-22T00:15:14;100176.25;;;15.22;67.58
64739;BME280;51175;51.186;0.276;2023-03-22T00:15:44;100179.69;;;15.23;67.53
64739;BME280;51175;51.186;0.276;2023-03-22T00:16:18;100169.03;;;15.23;67.27
64739;BME280;51175;51.186;0.276;2023-03-22T00:16:49;100174.38;;;15.23;67.48
64739;BME280;51175;51.186;0.276;2023-03-22T00:17:20;100177.03;;;15.23;67.47
64739;BME280;51175;51.186;0.276;2023-03-22T00:17:52;100171.22;;;15.21;67.31
64739;BME280;51175;51.186;0.276;2023-03-22T00:18:22;100170.13;;;15.22;67.25
64739;BME280;51175;51.186;0.276;2023-03-22T00:18:53;100170.94;;;15.22;67.13
64739;BME280;51175;51.186;0.276;2023-03-22T00:19:23;100170.94;;;15.22;67.38
64739;BME280;51175;51.186;0.276;2023-03-22T00:19:53;100172.00;;;15.21;67.16
64739;BME280;51175;51.186;0.276;2023-03-22T00:20:25;100175.47;;;15.22;67.26
64739;BME280;51175;51.186;0.276;2023-03-22T00:20:57;100159.50;;;15.22;67.26
64739;BME280;51175;51.186;0.276;2023-03-22T00:21:27;100169.03;;;15.23;67.36
64739;BME280;51175;51.186;0.276;2023-03-22T00:21:58;100172.81;;;15.22;67.40
64739;BME280;51175;51.186;0.276;2023-03-22T00:22:30;100172.00;;;15.21;67.33
64739;BME280;51175;51.186;0.276;2023-03-22T00:23:01;100167.78;;;15.20;67.16
64739;BME280;51175;51.186;0.276;2023-03-22T00:23:31;100168.28;;;15.22;67.37
64739;BME280;51175;51.186;0.276;2023-03-22T00:24:02;100176.25;;;15.22;67.35
64739;BME280;51175;51.186;0.276;2023-03-22T00:24:32;100161.38;;;15.21;67.35
64739;BME280;51175;51.186;0.276;2023-03-22T00:25:03;100167.47;;;15.22;67.20
64739;BME280;51175;51.186;0.276;2023-03-22T00:25:34;100166.69;;;15.21;67.38
64739;BME280;51175;51.186;0.276;2023-03-22T00:26:05;100164.81;;;15.22;67.21
64739;BME280;51175;51.186;0.276;2023-03-22T00:26:36;100166.69;;;15.21;67.51
64739;BME280;51175;51.186;0.276;2023-03-22T00:27:06;100164.03;;;15.21;67.37
64739;BME280;51175;51.186;0.276;2023-03-22T00:27:39;100155.28;;;15.21;67.47
64739;BME280;51175;51.186;0.276;2023-03-22T00:28:11;100164.03;;;15.21;67.40
64739;BME280;51175;51.186;0.276;2023-03-22T00:28:41;100158.69;;;15.21;67.18
64739;BME280;51175;51.186;0.276;2023-03-22T00:29:12;100154.47;;;15.20;67.34
64739;BME280;51175;51.186;0.276;2023-03-22T00:29:42;100156.03;;;15.21;67.16
64739;BME280;51175;51.186;0.276;2023-03-22T00:30:13;100157.94;;;15.21;67.31
64739;BME280;51175;51.186;0.276;2023-03-22T00:30:55;100156.03;;;15.21;67.29
64739;BME280;51175;51.186;0.276;2023-03-22T00:31:26;100163.25;;;15.21;67.23
64739;BME280;51175;51.186;0.276;2023-03-22T00:31:57;100157.94;;;15.21;67.55
64739;BME280;51175;51.186;0.276;2023-03-22T00:32:27;100149.94;;;15.21;67.36
64739;BME280;51175;51.186;0.276;2023-03-22T00:32:57;100149.16;;;15.20;67.23
64739;BME280;51175;51.186;0.276;2023-03-22T00:33:29;100153.38;;;15.21;67.18
64739;BME280;51175;51.186;0.276;2023-03-22T00:34:00;100149.94;;;15.21;67.26
64739;BME280;51175;51.186;0.276;2023-03-22T00:34:31;100157.13;;;15.20;67.20
64739;BME280;51175;51.186;0.276;2023-03-22T00:35:03;100147.59;;;15.19;67.64
64739;BME280;51175;51.186;0.276;2023-03-22T00:35:34;100151.03;;;15.20;67.24
64739;BME280;51175;51.186;0.276;2023-03-22T00:36:06;100152.13;;;15.19;67.36
64739;BME280;51175;51.186;0.276;2023-03-22T00:36:37;100158.22;;;15.19;67.42
64739;BME280;51175;51.186;0.276;2023-03-22T00:37:08;100151.03;;;15.20;67.24
64739;BME280;51175;51.186;0.276;2023-03-22T00:37:38;100143.03;;;15.20;67.39
64739;BME280;51175;51.186;0.276;2023-03-22T00:38:09;100154.78;;;15.19;67.28
64739;BME280;51175;51.186;0.276;2023-03-22T00:38:43;100140.69;;;15.18;67.35
64739;BME280;51175;51.186;0.276;2023-03-22T00:39:13;100152.13;;;15.19;67.24
64739;BME280;51175;51.186;0.276;2023-03-22T00:39:43;100148.66;;;15.18;67.16
64739;BME280;51175;51.186;0.276;2023-03-22T00:40:14;100141.47;;;15.19;67.22
64739;BME280;51175;51.186;0.276;2023-03-22T00:40:44;100143.34;;;15.18;67.29
64739;BME280;51175;51.186;0.276;2023-03-22T00:41:19;100151.31;;;15.18;67.22
64739;BME280;51175;51.186;0.276;2023-03-22T00:41:50;100150.25;;;15.19;67.47
64739;BME280;51175;51.186;0.276;2023-03-22T00:42:20;100142.56;;;15.18;67.36
64739;BME280;51175;51.186;0.276;2023-03-22T00:42:51;100155.06;;;15.17;67.28
64739;BME280;51175;51.186;0.276;2023-03-22T00:43:21;100137.25;;;15.18;67.23
64739;BME280;51175;51.186;0.276;2023-03-22T00:43:51;100146.00;;;15.18;67.26
64739;BME280;51175;51.186;0.276;2023-03-22T00:44:22;100151.31;;;15.18;67.22
64739;BME280;51175;51.186;0.276;2023-03-22T00:44:52;100147.09;;;15.17;67.22
64739;BME280;51175;51.186;0.276;2023-03-22T00:45:22;100141.78;;;15.17;67.53
64739;BME280;51175;51.186;0.276;2023-03-22T00:45:53;100138.31;;;15.17;67.42
64739;BME280;51175;51.186;0.276;2023-03-22T00:46:23;100148.97;;;15.17;67.55
64739;BME280;51175;51.186;0.276;2023-03-22T00:46:53;100133.78;;;15.17;67.11
64739;BME280;51175;51.186;0.276;2023-03-22T00:47:24;100144.44;;;15.17;67.46
64739;BME280;51175;51.186;0.276;2023-03-22T00:47:54;100130.34;;;15.17;67.22
64739;BME280;51175;51.186;0.276;2023-03-22T00:48:24;100143.63;;;15.17;67.36
64739;BME280;51175;51.186;0.276;2023-03-22T00:48:55;100133.00;;;15.17;67.59
64739;BME280;51175;51.186;0.276;2023-03-22T00:49:25;100133.00;;;15.17;67.34
64739;BME280;51175;51.186;0.276;2023-03-22T00:49:56;100127.69;;;15.17;67.21
64739;BME280;51175;51.186;0.276;2023-03-22T00:50:26;100125.81;;;15.17;67.50
64739;BME280;51175;51.186;0.276;2023-03-22T00:50:57;100140.97;;;15.17;67.29
64739;BME280;51175;51.186;0.276;2023-03-22T00:51:27;100126.63;;;15.18;67.47
64739;BME280;51175;51.186;0.276;2023-03-22T00:51:57;100130.34;;;15.17;67.47
64739;BME280;51175;51.186;0.276;2023-03-22T00:52:28;100135.66;;;15.17;67.44
64739;BME280;51175;51.186;0.276;2023-03-22T00:52:58;100125.81;;;15.17;67.06
64739;BME280;51175;51.186;0.276;2023-03-22T00:53:29;100125.03;;;15.17;67.37
64739;BME280;51175;51.186;0.276;2023-03-22T00:53:59;100128.47;;;15.17;67.56
64739;BME280;51175;51.186;0.276;2023-03-22T00:54:29;100123.16;;;15.17;67.22
64739;BME280;51175;51.186;0.276;2023-03-22T00:55:00;100130.34;;;15.17;67.21
64739;BME280;51175;51.186;0.276;2023-03-22T00:55:34;100123.94;;;15.18;67.35
64739;BME280;51175;51.186;0.276;2023-03-22T00:56:05;100131.13;;;15.17;67.38
64739;BME280;51175;51.186;0.276;2023-03-22T00:56:35;100123.16;;;15.17;67.14
64739;BME280;51175;51.186;0.276;2023-03-22T00:57:06;100118.94;;;15.16;67.50
64739;BME280;51175;51.186;0.276;2023-03-22T00:57:37;100115.19;;;15.17;67.47
64739;BME280;51175;51.186;0.276;2023-03-22T00:58:07;100113.63;;;15.16;67.34
64739;BME280;51175;51.186;0.276;2023-03-22T00:58:37;100117.84;;;15.17;67.16
64739;BME280;51175;51.186;0.276;2023-03-22T00:59:08;100117.03;;;15.17;67.21
64739;BME280;51175;51.186;0.276;2023-03-22T00:59:38;100116.28;;;15.16;67.43
64739;BME280;51175;51.186;0.276;2023-03-22T01:00:09;100109.06;;;15.17;67.34
64739;BME280;51175;51.186;0.276;2023-03-22T01:00:42;100108.28;;;15.16;67.32
64739;BME280;51175;51.186;0.276;2023-03-22T01:01:14;100106.41;;;15.17;67.13
64739;BME280;51175;51.186;0.276;2023-03-22T01:01:44;100102.97;;;15.16;67.43
64739;BME280;51175;51.186;0.276;2023-03-22T01:02:14;100109.06;;;15.17;67.17
64739;BME280;51175;51.186;0.276;2023-03-22T01:02:46;100112.81;;;15.16;67.26
64739;BME280;51175;51.186;0.276;2023-03-22T01:03:16;100103.75;;;15.17;67.32
64739;BME280;51175;51.186;0.276;2023-03-22T01:03:47;100104.03;;;15.15;67.18
64739;BME280;51175;51.186;0.276;2023-03-22T01:04:20;100114.69;;;15.15;67.42
64739;BME280;51175;51.186;0.276;2023-03-22T01:04:55;100117.34;;;15.15;67.39
64739;BME280;51175;51.186;0.276;2023-03-22T01:05:25;100092.63;;;15.14;67.33
64739;BME280;51175;51.186;0.276;2023-03-22T01:05:57;100101.38;;;15.15;67.38
64739;BME280;51175;51.186;0.276;2023-03-22T01:06:27;100100.63;;;15.14;67.10
64739;BME280;51175;51.186;0.276;2023-03-22T01:06:58;100112.03;;;15.15;67.41
64739;BME280;51175;51.186;0.276;2023-03-22T01:07:31;100097.16;;;15.14;67.48
64739;BME280;51175;51.186;0.276;2023-03-22T01:08:03;100097.94;;;15.14;67.31
64739;BME280;51175;51.186;0.276;2023-03-22T01:08:42;100099.53;;;15.16;67.23
64739;BME280;51175;51.186;0.276;2023-03-22T01:09:12;100096.06;;;15.15;67.42
64739;BME280;51175;51.186;0.276;2023-03-22T01:09:46;100091.53;;;15.16;67.18
64739;BME280;51175;51.186;0.276;2023-03-22T01:10:17;100089.19;;;15.14;67.25
64739;BME280;51175;51.186;0.276;2023-03-22T01:10:48;100096.06;;;15.15;67.11
64739;BME280;51175;51.186;0.276;2023-03-22T01:11:19;100082.75;;;15.15;67.30
64739;BME280;51175;51.186;0.276;2023-03-22T01:11:50;100087.31;;;15.14;67.34
64739;BME280;51175;51.186;0.276;2023-03-22T01:12:20;100088.88;;;15.16;67.39
64739;BME280;51175;51.186;0.276;2023-03-22T01:12:50;100078.53;;;15.14;67.16
64739;BME280;51175;51.186;0.276;2023-03-22T01:13:21;100084.66;;;15.14;67.25
64739;BME280;51175;51.186;0.276;2023-03-22T01:13:52;100087.31;;;15.14;67.64
64739;BME280;51175;51.186;0.276;2023-03-22T01:14:24;100079.34;;;15.14;67.29
64739;BME280;51175;51.186;0.276;2023-03-22T01:14:54;100081.19;;;15.14;67.55
64739;BME280;51175;51.186;0.276;2023-03-22T01:15:25;100080.09;;;15.15;67.28
64739;BME280;51175;51.186;0.276;2023-03-22T01:15:55;100080.91;;;15.16;67.13
64739;BME280;51175;51.186;0.276;2023-03-22T01:16:26;100085.41;;;15.15;67.23
64739;BME280;51175;51.186;0.276;2023-03-22T01:16:56;100071.34;;;15.14;67.38
64739;BME280;51175;51.186;0.276;2023-03-22T01:17:26;100073.22;;;15.14;67.58
64739;BME280;51175;51.186;0.276;2023-03-22T01:17:57;100076.97;;;15.13;67.36
64739;BME280;51175;51.186;0.276;2023-03-22T01:18:27;100076.69;;;15.14;67.40
64739;BME280;51175;51.186;0.276;2023-03-22T01:18:58;100077.44;;;15.15;67.48
64739;BME280;51175;51.186;0.276;2023-03-22T01:19:28;100074.00;;;15.14;67.53
64739;BME280;51175;51.186;0.276;2023-03-22T01:19:58;100073.22;;;15.14;67.29
64739;BME280;51175;51.186;0.276;2023-03-22T01:20:29;100070.56;;;15.14;67.33
64739;BME280;51175;51.186;0.276;2023-03-22T01:20:59;100066.03;;;15.14;67.20
64739;BME280;51175;51.186;0.276;2023-03-22T01:21:30;100058.06;;;15.14;67.19
64739;BME280;51175;51.186;0.276;2023-03-22T01:22:01;100070.56;;;15.14;67.16
64739;BME280;51175;51.186;0.276;2023-03-22T01:22:31;100059.13;;;15.13;67.20
64739;BME280;51175;51.186;0.276;2023-03-22T01:23:02;100064.16;;;15.15;67.20
64739;BME280;51175;51.186;0.276;2023-03-22T01:23:33;100060.72;;;15.14;67.30
64739;BME280;51175;51.186;0.276;2023-03-22T01:24:04;100055.41;;;15.14;67.36
64739;BME280;51175;51.186;0.276;2023-03-22T01:24:34;100046.63;;;15.14;67.10
64739;BME280;51175;51.186;0.276;2023-03-22T01:25:05;100051.16;;;15.13;67.20
64739;BME280;51175;51.186;0.276;2023-03-22T01:25:35;100053.50;;;15.15;67.31
64739;BME280;51175;51.186;0.276;2023-03-22T01:26:06;100047.41;;;15.14;67.33
64739;BME280;51175;51.186;0.276;2023-03-22T01:26:36;100050.84;;;15.15;67.00
64739;BME280;51175;51.186;0.276;2023-03-22T01:27:07;100062.28;;;15.16;67.28
64739;BME280;51175;51.186;0.276;2023-03-22T01:27:38;100041.00;;;15.16;67.13
64739;BME280;51175;51.186;0.276;2023-03-22T01:28:08;100052.44;;;15.16;67.06
64739;BME280;51175;51.186;0.276;2023-03-22T01:28:39;100048.97;;;15.16;67.18
64739;BME280;51175;51.186;0.276;2023-03-22T01:29:09;100044.47;;;15.16;67.26
64739;BME280;51175;51.186;0.276;2023-03-22T01:29:40;100053.19;;;15.17;67.33
64739;BME280;51175;51.186;0.276;2023-03-22T01:30:11;100047.88;;;15.17;67.25
64739;BME280;51175;51.186;0.276;2023-03-22T01:30:41;100048.97;;;15.16;67.21
64739;BME280;51175;51.186;0.276;2023-03-22T01:31:12;100048.19;;;15.15;67.28
64739;BME280;51175;51.186;0.276;2023-03-22T01:31:42;100048.97;;;15.16;67.34
64739;BME280;51175;51.186;0.276;2023-03-22T01:32:13;100043.66;;;15.16;67.40
64739;BME280;51175;51.186;0.276;2023-03-22T01:32:43;100049.78;;;15.16;66.94
64739;BME280;51175;51.186;0.276;2023-03-22T01:33:14;100047.88;;;15.17;67.25
64739;BME280;51175;51.186;0.276;2023-03-22T01:33:44;100036.47;;;15.16;67.26
64739;BME280;51175;51.186;0.276;2023-03-22T01:34:14;100033.81;;;15.16;67.12
64739;BME280;51175;51.186;0.276;2023-03-22T01:34:45;100033.81;;;15.16;67.02
64739;BME280;51175;51.186;0.276;2023-03-22T01:35:15;100032.72;;;15.17;67.11
64739;BME280;51175;51.186;0.276;2023-03-22T01:35:46;100030.84;;;15.18;66.96
64739;BME280;51175;51.186;0.276;2023-03-22T01:36:16;100034.59;;;15.17;67.28
64739;BME280;51175;51.186;0.276;2023-03-22T01:36:46;100037.25;;;15.17;67.11
64739;BME280;51175;51.186;0.276;2023-03-22T01:37:17;100038.34;;;15.16;67.06
64739;BME280;51175;51.186;0.276;2023-03-22T01:37:48;100034.59;;;15.17;67.00
64739;BME280;51175;51.186;0.276;2023-03-22T01:38:18;100023.94;;;15.17;66.87
64739;BME280;51175;51.186;0.276;2023-03-22T01:38:49;100033.03;;;15.16;67.08
64739;BME280;51175;51.186;0.276;2023-03-22T01:39:19;100031.94;;;15.17;67.32
64739;BME280;51175;51.186;0.276;2023-03-22T01:39:50;100035.38;;;15.17;67.31
64739;BME280;51175;51.186;0.276;2023-03-22T01:40:20;100022.38;;;15.16;67.23
64739;BME280;51175;51.186;0.276;2023-03-22T01:40:50;100031.94;;;15.17;66.95
64739;BME280;51175;51.186;0.276;2023-03-22T01:41:21;100019.72;;;15.16;66.90
64739;BME280;51175;51.186;0.276;2023-03-22T01:41:52;100023.94;;;15.17;67.13
64739;BME280;51175;51.186;0.276;2023-03-22T01:42:23;100031.16;;;15.16;67.28
64739;BME280;51175;51.186;0.276;2023-03-22T01:42:55;100029.25;;;15.17;67.28
64739;BME280;51175;51.186;0.276;2023-03-22T01:43:25;100031.16;;;15.16;67.23
64739;BME280;51175;51.186;0.276;2023-03-22T01:44:15;100023.19;;;15.16;67.31
64739;BME280;51175;51.186;0.276;2023-03-22T01:45:46;100026.91;;;15.15;67.01
64739;BME280;51175;51.186;0.276;2023-03-22T01:46:17;100020.81;;;15.14;67.19
64739;BME280;51175;51.186;0.276;2023-03-22T01:46:48;100017.38;;;15.14;67.25
64739;BME280;51175;51.186;0.276;2023-03-22T01:47:19;100021.88;;;15.13;67.03
64739;BME280;51175;51.186;0.276;2023-03-22T01:48:44;100015.00;;;15.12;67.16
64739;BME280;51175;51.186;0.276;2023-03-22T01:49:50;100021.13;;;15.13;67.27
64739;BME280;51175;51.186;0.276;2023-03-22T01:50:22;100019.53;;;15.12;67.09
64739;BME280;51175;51.186;0.276;2023-03-22T01:51:03;100017.66;;;15.12;67.22
64739;BME280;51175;51.186;0.276;2023-03-22T01:51:37;100007.81;;;15.13;67.02
64739;BME280;51175;51.186;0.276;2023-03-22T01:52:10;100012.34;;;15.12;67.27
64739;BME280;51175;51.186;0.276;2023-03-22T01:52:42;100003.56;;;15.12;67.24
64739;BME280;51175;51.186;0.276;2023-03-22T01:53:15;100015.00;;;15.12;67.17
64739;BME280;51175;51.186;0.276;2023-03-22T01:53:51;100012.34;;;15.12;67.22
64739;BME280;51175;51.186;0.276;2023-03-22T01:54:42;100009.69;;;15.12;67.10
64739;BME280;51175;51.186;0.276;2023-03-22T01:55:13;100006.22;;;15.12;67.43
64739;BME280;51175;51.186;0.276;2023-03-22T01:55:47;100002.81;;;15.11;67.54
64739;BME280;51175;51.186;0.276;2023-03-22T01:56:20;100003.88;;;15.10;67.30
64739;BME280;51175;51.186;0.276;2023-03-22T01:56:51;100010.28;;;15.09;67.12
64739;BME280;51175;51.186;0.276;2023-03-22T01:57:22;100005.78;;;15.10;67.13
64739;BME280;51175;51.186;0.276;2023-03-22T01:57:53;99993.25;;;15.10;67.41
64739;BME280;51175;51.186;0.276;2023-03-22T01:58:23;100002.31;;;15.09;67.16
64739;BME280;51175;51.186;0.276;2023-03-22T01:58:55;100005.78;;;15.10;67.26
64739;BME280;51175;51.186;0.276;2023-03-22T01:59:25;100001.22;;;15.10;67.39
64739;BME280;51175;51.186;0.276;2023-03-22T01:59:56;99995.13;;;15.10;67.20
64739;BME280;51175;51.186;0.276;2023-03-22T02:00:27;99995.13;;;15.10;67.29
64739;BME280;51175;51.186;0.276;2023-03-22T02:00:58;99993.25;;;15.10;67.09
64739;BME280;51175;51.186;0.276;2023-03-22T02:01:29;99998.56;;;15.10;67.17
64739;BME280;51175;51.186;0.276;2023-03-22T02:02:00;99987.91;;;15.10;67.31
64739;BME280;51175;51.186;0.276;2023-03-22T02:02:32;99987.91;;;15.10;67.20
64739;BME280;51175;51.186;0.276;2023-03-22T02:03:03;99989.50;;;15.11;67.24
64739;BME280;51175;51.186;0.276;2023-03-22T02:03:57;99993.25;;;15.10;67.39
64739;BME280;51175;51.186;0.276;2023-03-22T02:04:36;99982.59;;;15.10;67.41
64739;BME280;51175;51.186;0.276;2023-03-22T02:05:08;99979.94;;;15.10;67.24
64739;BME280;51175;51.186;0.276;2023-03-22T02:05:39;99983.41;;;15.11;67.36
64739;BME280;51175;51.186;0.276;2023-03-22T02:06:10;99975.72;;;15.09;67.27
64739;BME280;51175;51.186;0.276;2023-03-22T02:06:41;99973.84;;;15.10;67.14
64739;BME280;51175;51.186;0.276;2023-03-22T02:07:13;99989.00;;;15.09;67.26
64739;BME280;51175;51.186;0.276;2023-03-22T02:07:44;99967.75;;;15.09;67.37
64739;BME280;51175;51.186;0.276;2023-03-22T02:08:15;99973.84;;;15.10;66.96
64739;BME280;51175;51.186;0.276;2023-03-22T02:08:46;99971.97;;;15.10;67.38
64739;BME280;51175;51.186;0.276;2023-03-22T02:09:17;99965.09;;;15.09;67.34
64739;BME280;51175;51.186;0.276;2023-03-22T02:09:52;99977.28;;;15.10;67.24
64739;BME280;51175;51.186;0.276;2023-03-22T02:10:25;99962.44;;;15.09;66.98
64739;BME280;51175;51.186;0.276;2023-03-22T02:10:55;99963.97;;;15.10;66.97
64739;BME280;51175;51.186;0.276;2023-03-22T02:11:38;99957.59;;;15.11;66.94
64739;BME280;51175;51.186;0.276;2023-03-22T02:12:24;99972.75;;;15.11;67.35
64739;BME280;51175;51.186;0.276;2023-03-22T02:13:59;99968.53;;;15.10;67.47
64739;BME280;51175;51.186;0.276;2023-03-22T02:14:56;99954.44;;;15.09;67.31
64739;BME280;51175;51.186;0.276;2023-03-22T02:16:41;99967.25;;;15.07;67.30
64739;BME280;51175;51.186;0.276;2023-03-22T02:18:25;99966.47;;;15.07;67.53
64739;BME280;51175;51.186;0.276;2023-03-22T02:22:18;99950.34;;;15.03;67.34
64739;BME280;51175;51.186;0.276;2023-03-22T02:28:27;99952.00;;;14.99;67.62
64739;BME280;51175;51.186;0.276;2023-03-22T02:29:07;99951.25;;;14.98;67.82
64739;BME280;51175;51.186;0.276;2023-03-22T02:29:46;99951.25;;;14.98;67.74
64739;BME280;51175;51.186;0.276;2023-03-22T02:31:12;99937.94;;;14.98;67.55
64739;BME280;51175;51.186;0.276;2023-03-22T02:33:46;99944.03;;;14.99;67.49
64739;BME280;51175;51.186;0.276;2023-03-22T02:35:57;99943.28;;;14.98;67.93
64739;BME280;51175;51.186;0.276;2023-03-22T02:40:13;99937.16;;;14.98;67.81
64739;BME280;51175;51.186;0.276;2023-03-22T02:41:11;99950.44;;;14.98;67.58
64739;BME280;51175;51.186;0.276;2023-03-22T02:44:42;99928.69;;;14.96;67.79
64739;BME280;51175;51.186;0.276;2023-03-22T02:46:31;99938.25;;;14.97;67.76
64739;BME280;51175;51.186;0.276;2023-03-22T02:47:55;99938.25;;;14.97;67.58
64739;BME280;51175;51.186;0.276;2023-03-22T02:48:33;99938.25;;;14.97;67.83
64739;BME280;51175;51.186;0.276;2023-03-22T02:49:15;99940.13;;;14.96;67.67
64739;BME280;51175;51.186;0.276;2023-03-22T02:50:04;99940.91;;;14.97;67.64
64739;BME280;51175;51.186;0.276;2023-03-22T02:50:43;99940.91;;;14.97;67.66
64739;BME280;51175;51.186;0.276;2023-03-22T02:51:24;99940.91;;;14.97;67.46
64739;BME280;51175;51.186;0.276;2023-03-22T02:53:24;99930.28;;;14.97;67.72
64739;BME280;51175;51.186;0.276;2023-03-22T02:54:08;99949.66;;;14.97;67.59
64739;BME280;51175;51.186;0.276;2023-03-22T02:55:01;99948.88;;;14.97;67.65
64739;BME280;51175;51.186;0.276;2023-03-22T02:56:03;99938.25;;;14.97;67.82
64739;BME280;51175;51.186;0.276;2023-03-22T02:56:49;99932.94;;;14.97;67.71
64739;BME280;51175;51.186;0.276;2023-03-22T02:57:46;99927.13;;;14.95;67.81
64739;BME280;51175;51.186;0.276;2023-03-22T02:58:26;99929.78;;;14.95;67.91
64739;BME280;51175;51.186;0.276;2023-03-22T02:59:02;99926.34;;;14.94;67.99
64739;BME280;51175;51.186;0.276;2023-03-22T02:59:35;99924.47;;;14.95;67.85
64739;BME280;51175;51.186;0.276;2023-03-22T03:00:08;99922.59;;;14.95;67.63
64739;BME280;51175;51.186;0.276;2023-03-22T03:00:42;99935.91;;;14.95;67.65
64739;BME280;51175;51.186;0.276;2023-03-22T03:01:34;99920.72;;;14.96;67.83
64739;BME280;51175;51.186;0.276;2023-03-22T03:02:10;99928.69;;;14.96;67.66
64739;BME280;51175;51.186;0.276;2023-03-22T03:02:52;99916.50;;;14.95;67.89
64739;BME280;51175;51.186;0.276;2023-03-22T03:03:25;99931.34;;;14.96;67.82
64739;BME280;51175;51.186;0.276;2023-03-22T03:04:02;99920.72;;;14.96;67.55
64739;BME280;51175;51.186;0.276;2023-03-22T03:04:41;99920.72;;;14.96;67.70
64739;BME280;51175;51.186;0.276;2023-03-22T03:05:14;99925.25;;;14.95;67.86
64739;BME280;51175;51.186;0.276;2023-03-22T03:05:53;99920.72;;;14.96;67.69
64739;BME280;51175;51.186;0.276;2023-03-22T03:06:28;99919.16;;;14.95;67.85
64739;BME280;51175;51.186;0.276;2023-03-22T03:07:05;99916.97;;;14.97;67.65
64739;BME280;51175;51.186;0.276;2023-03-22T03:07:41;99907.41;;;14.96;67.65
64739;BME280;51175;51.186;0.276;2023-03-22T03:08:15;99906.66;;;14.95;67.67
64739;BME280;51175;51.186;0.276;2023-03-22T03:08:47;99901.03;;;14.97;67.77
64739;BME280;51175;51.186;0.276;2023-03-22T03:09:20;99909.78;;;14.97;67.57
64739;BME280;51175;51.186;0.276;2023-03-22T03:09:50;99902.59;;;14.98;67.68
64739;BME280;51175;51.186;0.276;2023-03-22T03:10:22;99904.47;;;14.97;67.65
64739;BME280;51175;51.186;0.276;2023-03-22T03:10:53;99908.22;;;14.96;67.72
64739;BME280;51175;51.186;0.276;2023-03-22T03:11:24;99895.72;;;14.97;67.65
64739;BME280;51175;51.186;0.276;2023-03-22T03:11:54;99890.09;;;14.98;67.73
64739;BME280;51175;51.186;0.276;2023-03-22T03:12:26;99906.03;;;14.98;67.76
64739;BME280;51175;51.186;0.276;2023-03-22T03:12:57;99894.63;;;14.98;67.67
64739;BME280;51175;51.186;0.276;2023-03-22T03:13:27;99897.75;;;15.00;67.45
64739;BME280;51175;51.186;0.276;2023-03-22T03:13:58;99896.19;;;14.99;67.83
64739;BME280;51175;51.186;0.276;2023-03-22T03:14:30;99904.94;;;14.99;67.72
64739;BME280;51175;51.186;0.276;2023-03-22T03:15:01;99904.94;;;14.99;67.68
64739;BME280;51175;51.186;0.276;2023-03-22T03:15:31;99901.50;;;14.99;67.54
64739;BME280;51175;51.186;0.276;2023-03-22T03:16:02;99896.19;;;14.99;67.41
64739;BME280;51175;51.186;0.276;2023-03-22T03:16:36;99907.31;;;15.01;67.53
64739;BME280;51175;51.186;0.276;2023-03-22T03:17:55;99902.28;;;14.99;67.62
64739;BME280;51175;51.186;0.276;2023-03-22T03:18:45;99911.84;;;15.00;67.85
64739;BME280;51175;51.186;0.276;2023-03-22T03:19:27;99901.50;;;14.99;67.77
64739;BME280;51175;51.186;0.276;2023-03-22T03:22:24;99900.72;;;14.98;67.52
64739;BME280;51175;51.186;0.276;2023-03-22T03:24:59;99903.69;;;14.97;67.75
64739;BME280;51175;51.186;0.276;2023-03-22T03:26:48;99893.81;;;14.97;67.57
64739;BME280;51175;51.186;0.276;2023-03-22T03:27:34;99900.22;;;14.96;67.85